createdAt,value
2019-01-28T00:01:33.273Z,91194.88
2019-01-28T00:04:05.258Z,91214.91
2019-01-28T00:06:36.402Z,91218.43
2019-01-28T00:09:08.525Z,91213.89
2019-01-28T00:11:39.456Z,91206.10
2019-01-28T00:14:10.513Z,91214.85
2019-01-28T00:16:41.519Z,91207.27
2019-01-28T00:19:12.439Z,91202.00
2019-01-28T00:21:44.058Z,91197.74
2019-01-28T00:24:15.011Z,91192.36
2019-01-28T00:26:45.903Z,91194.20
2019-01-28T00:29:18.458Z,91193.14
2019-01-28T00:31:49.461Z,91198.64
2019-01-28T00:34:20.495Z,91208.34
2019-01-28T00:36:51.554Z,91215.52
2019-01-28T00:39:22.473Z,91217.80
2019-01-28T00:41:53.529Z,91225.80
2019-01-28T00:44:24.501Z,91235.72
2019-01-28T00:46:55.526Z,91240.31
2019-01-28T00:49:26.547Z,91235.66
2019-01-28T00:51:57.605Z,91217.98
2019-01-28T00:54:28.626Z,91210.22
2019-01-28T00:56:59.582Z,91213.05
2019-01-28T00:59:30.513Z,91216.59
2019-01-28T01:02:01.421Z,91215.17
2019-01-28T01:04:32.515Z,91206.45
2019-01-28T01:07:03.518Z,91194.16
2019-01-28T01:09:34.469Z,91203.51
2019-01-28T01:12:05.610Z,91214.06
2019-01-28T01:14:36.549Z,91205.13
2019-01-28T01:17:07.518Z,91194.59
2019-01-28T01:19:38.434Z,91188.80
2019-01-28T01:22:09.461Z,91190.44
2019-01-28T01:24:43.001Z,91179.97
2019-01-28T01:27:13.943Z,91178.65
2019-01-28T01:29:44.897Z,91175.02
2019-01-28T01:32:15.854Z,91178.66
2019-01-28T01:35:06.659Z,91183.83
2019-01-28T01:37:37.581Z,91177.25
2019-01-28T01:40:10.877Z,91172.08
2019-01-28T01:42:42.003Z,91168.61
2019-01-28T01:45:15.169Z,91166.90
2019-01-28T01:47:46.284Z,91177.03
2019-01-28T01:50:17.355Z,91170.96
2019-01-28T01:52:48.335Z,91164.44
2019-01-28T01:55:19.255Z,91169.25
2019-01-28T01:57:50.769Z,91173.27
2019-01-28T02:00:22.544Z,91169.09
2019-01-28T02:02:53.534Z,91163.21
2019-01-28T02:05:24.515Z,91157.82
2019-01-28T02:07:55.519Z,91154.10
2019-01-28T02:10:26.475Z,91153.59
2019-01-28T02:12:57.579Z,91147.30
2019-01-28T02:15:28.544Z,91146.48
2019-01-28T02:17:59.739Z,91148.38
2019-01-28T02:20:30.723Z,91139.75
2019-01-28T02:23:01.606Z,91138.66
2019-01-28T02:25:32.584Z,91146.48
2019-01-28T02:28:04.067Z,91143.14
2019-01-28T02:30:35.117Z,91136.14
2019-01-28T02:33:06.007Z,91142.23
2019-01-28T02:35:37.023Z,91140.69
2019-01-28T02:38:08.013Z,91138.81
2019-01-28T02:40:39.006Z,91146.78
2019-01-28T02:43:10.082Z,91140.06
2019-01-28T02:45:41.029Z,91148.67
2019-01-28T02:48:11.975Z,91144.36
2019-01-28T02:50:44.187Z,91150.00
2019-01-28T02:53:15.096Z,91151.05
2019-01-28T02:55:46.179Z,91143.98
2019-01-28T02:58:20.607Z,91144.75
2019-01-28T03:00:51.495Z,91140.64
2019-01-28T03:03:22.431Z,91145.31
2019-01-28T03:05:53.361Z,91146.31
2019-01-28T03:08:24.317Z,91148.80
2019-01-28T03:10:55.204Z,91134.42
2019-01-28T03:13:26.199Z,91134.78
2019-01-28T03:15:57.154Z,91128.42
2019-01-28T03:18:28.144Z,91124.82
2019-01-28T03:20:59.178Z,91125.50
2019-01-28T03:23:30.254Z,91127.94
2019-01-28T03:26:01.219Z,91130.19
2019-01-28T03:28:32.226Z,91124.46
2019-01-28T03:31:03.175Z,91120.44
2019-01-28T03:33:34.068Z,91117.98
2019-01-28T03:36:05.387Z,91123.63
2019-01-28T03:38:36.317Z,91126.30
2019-01-28T03:41:07.235Z,91124.75
2019-01-28T03:43:38.482Z,91113.51
2019-01-28T03:46:09.853Z,91107.19
2019-01-28T03:48:41.340Z,91111.19
2019-01-28T03:51:12.406Z,91102.86
2019-01-28T03:53:43.430Z,91108.16
2019-01-28T03:56:14.390Z,91101.64
2019-01-28T03:58:46.214Z,91111.06
2019-01-28T04:01:17.109Z,91116.36
2019-01-28T04:03:48.007Z,91119.56
2019-01-28T04:06:19.099Z,91120.02
2019-01-28T04:08:50.056Z,91118.55
2019-01-28T04:11:20.988Z,91117.62
2019-01-28T04:13:52.000Z,91110.12
2019-01-28T04:16:24.771Z,91105.34
2019-01-28T04:18:55.681Z,91101.33
2019-01-28T04:21:26.875Z,91097.17
2019-01-28T04:23:57.841Z,91094.50
2019-01-28T04:26:28.782Z,91101.71
2019-01-28T04:28:59.800Z,91102.71
2019-01-28T04:31:30.696Z,91105.81
2019-01-28T04:34:01.723Z,91094.39
2019-01-28T04:36:32.578Z,91098.87
2019-01-28T04:39:04.930Z,91096.17
2019-01-28T04:41:35.906Z,91095.97
2019-01-28T04:44:07.018Z,91097.52
2019-01-28T04:46:37.936Z,91100.04
2019-01-28T04:49:09.082Z,91104.81
2019-01-28T04:51:42.277Z,91105.71
2019-01-28T04:54:13.177Z,91099.86
2019-01-28T04:56:47.329Z,91103.02
2019-01-28T04:59:19.909Z,91109.20
2019-01-28T05:01:50.910Z,91105.38
2019-01-28T05:04:21.883Z,91108.27
2019-01-28T05:06:52.783Z,91101.56
2019-01-28T05:09:23.700Z,91103.27
2019-01-28T05:11:54.651Z,91100.34
2019-01-28T05:14:25.616Z,91090.89
2019-01-28T05:16:56.819Z,91093.44
2019-01-28T05:19:27.875Z,91099.09
2019-01-28T05:21:58.788Z,91105.45
2019-01-28T05:24:29.747Z,91108.52
2019-01-28T05:27:00.923Z,91113.61
2019-01-28T05:29:31.841Z,91111.09
2019-01-28T05:32:02.815Z,91107.75
2019-01-28T05:34:33.715Z,91113.50
2019-01-28T05:37:08.299Z,91111.19
2019-01-28T05:39:40.685Z,91104.25
2019-01-28T05:42:11.924Z,91095.19
2019-01-28T05:44:43.808Z,91106.33
2019-01-28T05:47:14.921Z,91111.13
2019-01-28T05:49:45.932Z,91110.48
2019-01-28T05:52:17.016Z,91115.41
2019-01-28T05:54:47.965Z,91099.55
2019-01-28T05:57:18.986Z,91100.27
2019-01-28T05:59:49.935Z,91112.55
2019-01-28T06:02:20.916Z,91111.57
2019-01-28T06:04:51.905Z,91114.76
2019-01-28T06:07:22.791Z,91117.89
2019-01-28T06:09:53.763Z,91112.21
2019-01-28T06:12:24.667Z,91114.70
2019-01-28T06:14:55.661Z,91107.91
2019-01-28T06:17:26.638Z,91108.52
2019-01-28T06:19:57.631Z,91107.48
2019-01-28T06:22:28.543Z,91098.45
2019-01-28T06:24:59.519Z,91099.63
2019-01-28T06:27:30.436Z,91099.08
2019-01-28T06:30:01.376Z,91115.59
2019-01-28T06:32:32.300Z,91110.69
2019-01-28T06:35:03.221Z,91108.73
2019-01-28T06:37:35.436Z,91104.70
2019-01-28T06:40:08.295Z,91103.98
2019-01-28T06:42:39.261Z,91097.19
2019-01-28T06:45:12.250Z,91109.28
2019-01-28T06:47:47.009Z,91110.84
2019-01-28T06:50:17.789Z,91104.06
2019-01-28T06:52:48.913Z,91113.09
2019-01-28T06:55:21.683Z,91117.20
2019-01-28T06:57:52.785Z,91118.34
2019-01-28T07:00:28.951Z,91120.41
2019-01-28T07:03:00.062Z,91116.98
2019-01-28T07:05:31.209Z,91124.67
2019-01-28T07:08:02.150Z,91134.25
2019-01-28T07:10:33.120Z,91123.41
2019-01-28T07:13:04.369Z,91121.87
2019-01-28T07:15:35.446Z,91122.41
2019-01-28T07:18:06.375Z,91123.63
2019-01-28T07:20:37.338Z,91126.55
2019-01-28T07:23:08.401Z,91122.08
2019-01-28T07:25:39.329Z,91126.19
2019-01-28T07:28:10.389Z,91122.59
2019-01-28T07:30:41.351Z,91126.45
2019-01-28T07:33:12.266Z,91124.80
2019-01-28T07:35:43.214Z,91115.72
2019-01-28T07:38:14.228Z,91116.86
2019-01-28T07:40:45.158Z,91112.98
2019-01-28T07:43:16.110Z,91103.43
2019-01-28T07:45:48.858Z,91107.62
2019-01-28T07:48:20.342Z,91098.93
2019-01-28T07:50:51.308Z,91106.72
2019-01-28T07:53:22.222Z,91107.11
2019-01-28T07:55:53.138Z,91105.36
2019-01-28T07:58:24.036Z,91104.82
2019-01-28T08:00:55.014Z,91114.19
2019-01-28T08:03:26.052Z,91103.70
2019-01-28T08:05:56.966Z,91117.99
2019-01-28T08:08:30.456Z,91117.73
2019-01-28T08:11:01.401Z,91111.72
2019-01-28T08:13:32.296Z,91115.05
2019-01-28T08:16:03.200Z,91106.77
2019-01-28T08:18:34.618Z,91105.34
2019-01-28T08:21:05.546Z,91113.49
2019-01-28T08:23:36.515Z,91109.25
2019-01-28T08:26:07.484Z,91111.88
2019-01-28T08:28:38.395Z,91109.70
2019-01-28T08:31:09.490Z,91118.88
2019-01-28T08:33:40.481Z,91127.20
2019-01-28T08:36:11.423Z,91122.89
2019-01-28T08:38:42.704Z,91127.92
2019-01-28T08:41:13.861Z,91122.98
2019-01-28T08:43:44.766Z,91123.15
2019-01-28T08:46:16.726Z,91129.80
2019-01-28T08:48:47.789Z,91133.31
2019-01-28T08:51:19.447Z,91140.12
2019-01-28T08:53:50.395Z,91134.57
2019-01-28T08:56:21.326Z,91140.92
2019-01-28T08:58:52.253Z,91133.20
2019-01-28T09:01:23.230Z,91132.86
2019-01-28T09:03:54.114Z,91128.83
2019-01-28T09:06:25.032Z,91124.59
2019-01-28T09:08:56.128Z,91117.52
2019-01-28T09:11:27.159Z,91115.58
2019-01-28T09:13:58.069Z,91108.57
2019-01-28T09:16:29.001Z,91107.95
2019-01-28T09:19:03.338Z,91097.60
2019-01-28T09:21:34.215Z,91105.11
2019-01-28T09:24:05.878Z,91107.94
2019-01-28T09:26:36.778Z,91100.94
2019-01-28T09:29:07.713Z,91097.06
2019-01-28T09:31:38.742Z,91104.27
2019-01-28T09:34:09.651Z,91098.67
2019-01-28T09:36:40.604Z,91097.05
2019-01-28T09:39:11.688Z,91090.20
2019-01-28T09:41:42.799Z,91091.35
2019-01-28T09:44:36.314Z,91096.38
2019-01-28T09:47:11.349Z,91094.69
2019-01-28T09:49:58.278Z,91089.74
2019-01-28T09:52:42.810Z,91083.58
2019-01-28T09:55:28.308Z,91073.84
2019-01-28T09:58:05.303Z,91072.88
2019-01-28T10:00:55.374Z,91067.33
2019-01-28T10:03:32.619Z,91063.22
2019-01-28T10:06:20.313Z,91064.66
2019-01-28T10:08:54.484Z,91061.80
2019-01-28T10:11:40.309Z,91053.05
2019-01-28T10:14:17.553Z,91052.70
2019-01-28T10:16:59.309Z,91051.86
2019-01-28T10:19:33.868Z,91040.05
2019-01-28T10:22:21.333Z,91034.48
2019-01-28T10:25:13.013Z,91030.33
2019-01-28T10:27:52.245Z,91025.19
2019-01-28T10:30:31.154Z,91018.90
2019-01-28T10:33:11.604Z,91010.62
2019-01-28T10:35:52.111Z,91007.18
2019-01-28T10:38:30.267Z,91010.69
2019-01-28T10:41:07.540Z,90999.26
2019-01-28T10:43:52.029Z,91000.02
2019-01-28T10:46:26.991Z,90992.50
2019-01-28T10:49:04.785Z,90994.98
2019-01-28T10:51:41.338Z,90985.78
2019-01-28T10:54:21.024Z,90986.62
2019-01-28T10:56:53.397Z,90986.45
2019-01-28T10:59:30.175Z,90976.36
2019-01-28T11:02:16.672Z,90982.25
2019-01-28T11:04:48.890Z,90978.23
2019-01-28T11:07:21.334Z,90975.06
2019-01-28T11:10:08.066Z,90977.32
2019-01-28T11:12:49.285Z,90975.34
2019-01-28T11:15:27.895Z,90970.63
2019-01-28T11:18:05.153Z,90969.48
2019-01-28T11:20:52.540Z,90968.60
2019-01-28T11:23:27.290Z,90972.36
2019-01-28T11:26:08.712Z,90969.78
2019-01-28T11:28:41.593Z,90977.08
2019-01-28T11:31:19.444Z,90972.09
2019-01-28T11:34:12.322Z,90971.14
2019-01-28T11:36:57.353Z,90971.30
2019-01-28T11:39:35.768Z,90971.94
2019-01-28T11:42:18.015Z,90972.62
2019-01-28T11:45:24.020Z,90964.20
2019-01-28T11:48:11.870Z,90951.95
2019-01-28T11:51:00.624Z,90956.94
2019-01-28T11:53:39.630Z,90953.96
2019-01-28T11:56:16.140Z,90961.73
2019-01-28T11:58:54.229Z,90961.77
2019-01-28T12:01:35.496Z,90955.89
2019-01-28T12:04:21.544Z,90949.14
2019-01-28T12:07:01.303Z,90951.09
2019-01-28T12:09:39.753Z,90937.87
2019-01-28T12:12:16.491Z,90934.35
2019-01-28T12:14:50.316Z,90937.50
2019-01-28T12:17:33.634Z,90938.36
2019-01-28T12:20:10.098Z,90934.77
2019-01-28T12:22:47.791Z,90934.92
2019-01-28T12:25:26.247Z,90939.37
2019-01-28T12:27:59.149Z,90932.88
2019-01-28T12:30:33.200Z,90934.78
2019-01-28T12:33:05.078Z,90930.28
2019-01-28T12:35:38.608Z,90928.69
2019-01-28T12:38:15.890Z,90930.66
2019-01-28T12:40:53.554Z,90923.20
2019-01-28T12:43:41.896Z,90932.88
2019-01-28T12:46:27.352Z,90936.83
2019-01-28T12:49:01.228Z,90925.61
2019-01-28T12:51:38.886Z,90939.91
2019-01-28T12:54:13.923Z,90934.91
2019-01-28T12:56:54.387Z,90930.28
2019-01-28T12:59:40.414Z,90938.41
2019-01-28T13:02:29.239Z,90933.86
2019-01-28T13:05:05.917Z,90942.86
2019-01-28T13:07:39.819Z,90937.33
2019-01-28T13:10:35.859Z,90942.24
2019-01-28T13:13:11.651Z,90954.37
2019-01-28T13:15:50.181Z,90941.11
2019-01-28T13:18:31.970Z,90922.41
2019-01-28T13:21:03.597Z,90935.87
2019-01-28T13:23:42.996Z,90929.45
2019-01-28T13:26:29.229Z,90913.49
2019-01-28T13:29:07.540Z,90918.18
2019-01-28T13:31:57.048Z,90914.12
2019-01-28T13:34:34.572Z,90896.12
2019-01-28T13:37:21.058Z,90905.66
2019-01-28T13:40:05.004Z,90903.47
2019-01-28T13:42:43.487Z,90893.93
2019-01-28T13:45:31.145Z,90898.16
2019-01-28T13:48:31.549Z,90900.81
2019-01-28T13:51:37.050Z,90900.58
2019-01-28T13:54:16.538Z,90910.05
2019-01-28T13:57:17.369Z,90887.20
2019-01-28T14:03:11.788Z,90905.35
2019-01-28T14:06:03.338Z,90898.39
2019-01-28T14:08:45.506Z,90897.47
2019-01-28T14:11:47.517Z,90894.97
2019-01-28T14:14:25.136Z,90896.48
2019-01-28T14:17:18.993Z,90898.40
2019-01-28T14:20:24.712Z,90892.33
2019-01-28T14:23:04.593Z,90892.53
2019-01-28T14:25:48.014Z,90889.07
2019-01-28T14:28:40.954Z,90892.63
2019-01-28T14:31:38.278Z,90890.34
2019-01-28T14:34:42.464Z,90898.64
2019-01-28T14:37:34.050Z,90906.48
2019-01-28T14:40:16.732Z,90898.14
2019-01-28T14:43:19.032Z,90885.86
2019-01-28T14:46:06.256Z,90893.20
2019-01-28T14:49:07.612Z,90894.45
2019-01-28T14:51:56.020Z,90880.63
2019-01-28T14:54:32.709Z,90891.88
2019-01-28T14:57:30.149Z,90901.88
2019-01-28T15:00:05.442Z,90901.66
2019-01-28T15:02:43.502Z,90892.70
2019-01-28T15:05:20.052Z,90885.66
2019-01-28T15:07:55.248Z,90878.61
2019-01-28T15:10:48.491Z,90897.84
2019-01-28T15:13:58.395Z,90891.74
2019-01-28T15:16:36.706Z,90896.97
2019-01-28T15:19:18.234Z,90898.23
2019-01-28T15:22:00.922Z,90898.55
2019-01-28T15:24:39.912Z,90894.64
2019-01-28T15:27:22.705Z,90901.96
2019-01-28T15:30:05.370Z,90907.56
2019-01-28T15:32:45.025Z,90908.02
2019-01-28T15:35:50.229Z,90902.42
2019-01-28T15:38:31.561Z,90895.80
2019-01-28T15:41:31.348Z,90896.63
2019-01-28T15:44:19.918Z,90895.64
2019-01-28T15:47:10.467Z,90893.81
2019-01-28T15:52:51.310Z,90893.87
2019-01-28T15:55:47.327Z,90893.39
2019-01-28T15:58:30.560Z,90897.70
2019-01-28T16:01:11.465Z,90883.92
2019-01-28T16:03:54.595Z,90886.70
2019-01-28T16:06:33.878Z,90888.67
2019-01-28T16:09:28.653Z,90894.98
2019-01-28T16:11:56.987Z,90899.28
2019-01-28T16:14:38.563Z,90888.17
2019-01-28T16:17:21.274Z,90892.48
2019-01-28T16:20:06.547Z,90893.72
2019-01-28T16:22:50.393Z,90887.44
2019-01-28T16:25:28.655Z,90897.05
2019-01-28T16:31:02.905Z,90877.09
2019-01-28T16:33:57.187Z,90893.89
2019-01-28T16:36:38.571Z,90885.68
2019-01-28T16:39:23.965Z,90900.08
2019-01-28T16:42:02.124Z,90909.58
2019-01-28T16:44:49.765Z,90889.38
2019-01-28T16:47:30.619Z,90899.95
2019-01-28T16:50:16.886Z,90899.70
2019-01-28T16:53:00.632Z,90890.08
2019-01-28T16:55:43.521Z,90900.78
2019-01-28T16:58:37.640Z,90908.40
2019-01-28T17:01:22.635Z,90887.25
2019-01-28T17:04:12.209Z,90896.50
2019-01-28T17:07:02.878Z,90898.17
2019-01-28T17:09:41.752Z,90894.14
2019-01-28T17:12:15.194Z,90897.62
2019-01-28T17:14:49.041Z,90893.14
2019-01-28T17:17:25.635Z,90898.70
2019-01-28T17:20:00.872Z,90899.38
2019-01-28T17:22:41.467Z,90897.47
2019-01-28T17:25:32.649Z,90883.77
2019-01-28T17:28:04.108Z,90888.72
2019-01-28T17:30:47.187Z,90893.70
2019-01-28T17:33:54.616Z,90889.90
2019-01-28T17:36:46.398Z,90891.84
2019-01-28T17:39:54.643Z,90885.84
2019-01-28T17:42:33.598Z,90894.36
2019-01-28T17:45:25.008Z,90891.28
2019-01-28T17:48:00.930Z,90889.92
2019-01-28T17:50:50.771Z,90893.27
2019-01-28T17:53:31.352Z,90899.82
2019-01-28T17:56:34.027Z,90899.02
2019-01-28T17:59:29.548Z,90894.95
2019-01-28T18:02:15.285Z,90898.64
2019-01-28T18:05:02.095Z,90899.31
2019-01-28T18:07:47.232Z,90901.08
2019-01-28T18:10:43.855Z,90897.27
2019-01-28T18:13:27.371Z,90894.65
2019-01-28T18:16:16.001Z,90902.74
2019-01-28T18:19:29.383Z,90913.05
2019-01-28T18:22:47.240Z,90912.89
2019-01-28T18:25:36.680Z,90903.78
2019-01-28T18:28:22.147Z,90916.53
2019-01-28T18:31:24.080Z,90907.45
2019-01-28T18:34:29.833Z,90906.03
2019-01-28T18:37:22.362Z,90915.32
2019-01-28T18:40:19.259Z,90912.11
2019-01-28T18:43:20.465Z,90905.95
2019-01-28T18:46:39.471Z,90916.64
2019-01-28T18:49:21.766Z,90923.19
2019-01-28T18:52:06.881Z,90916.51
2019-01-28T18:55:00.257Z,90917.84
2019-01-28T18:58:05.548Z,90912.22
2019-01-28T19:00:51.846Z,90906.40
2019-01-28T19:03:45.192Z,90907.42
2019-01-28T19:06:48.513Z,90924.20
2019-01-28T19:09:35.404Z,90915.41
2019-01-28T19:12:53.424Z,90917.73
2019-01-28T19:15:52.355Z,90919.94
2019-01-28T19:18:49.998Z,90904.48
2019-01-28T19:21:40.788Z,90902.32
2019-01-28T19:24:45.861Z,90902.98
2019-01-28T19:31:23.568Z,90915.38
2019-01-28T19:34:40.642Z,90911.11
2019-01-28T19:37:22.790Z,90916.71
2019-01-28T19:40:25.650Z,90923.50
2019-01-28T19:46:34.132Z,90919.92
2019-01-28T19:49:50.558Z,90924.22
2019-01-28T19:52:41.401Z,90926.38
2019-01-28T19:56:24.722Z,90918.67
2019-01-28T19:59:25.140Z,90924.15
2019-01-28T20:02:13.580Z,90910.33
2019-01-28T20:05:14.248Z,90912.61
2019-01-28T20:08:34.135Z,90918.27
2019-01-28T20:11:24.464Z,90909.19
2019-01-28T20:14:50.209Z,90926.44
2019-01-28T20:18:04.067Z,90927.97
2019-01-28T20:20:56.080Z,90926.55
2019-01-28T20:23:41.975Z,90920.00
2019-01-28T20:26:20.740Z,90928.82
2019-01-28T20:29:07.926Z,90934.85
2019-01-28T20:31:46.815Z,90926.89
2019-01-28T20:34:27.502Z,90932.61
2019-01-28T20:37:02.086Z,90928.84
2019-01-28T20:39:48.791Z,90926.61
2019-01-28T20:42:53.678Z,90934.35
2019-01-28T20:45:44.780Z,90929.00
2019-01-28T20:48:37.299Z,90929.46
2019-01-28T20:51:18.889Z,90913.27
2019-01-28T20:54:05.238Z,90912.00
2019-01-28T20:56:44.794Z,90910.55
2019-01-28T20:59:48.788Z,90914.86
2019-01-28T21:03:03.864Z,90909.54
2019-01-28T21:06:15.387Z,90917.66
2019-01-28T21:09:11.782Z,90912.62
2019-01-28T21:12:10.826Z,90908.72
2019-01-28T21:15:01.757Z,90909.70
2019-01-28T21:17:51.796Z,90911.59
2019-01-28T21:20:53.013Z,90912.48
2019-01-28T21:23:42.415Z,90906.09
2019-01-28T21:26:34.881Z,90908.69
2019-01-28T21:29:24.784Z,90911.31
2019-01-28T21:32:15.015Z,90923.13
2019-01-28T21:35:06.703Z,90914.80
2019-01-28T21:38:01.784Z,90894.98
2019-01-28T21:40:57.275Z,90902.86
2019-01-28T21:43:47.606Z,90903.99
2019-01-28T21:46:37.544Z,90905.48
2019-01-28T21:49:28.508Z,90911.88
2019-01-28T21:52:18.740Z,90901.73
2019-01-28T21:54:50.647Z,90902.79
2019-01-28T21:57:22.071Z,90917.43
2019-01-28T21:59:54.441Z,90913.45
2019-01-28T22:02:25.857Z,90908.91
2019-01-28T22:04:57.331Z,90911.65
2019-01-28T22:07:28.765Z,90915.65
2019-01-28T22:10:00.255Z,90917.52
2019-01-28T22:12:31.789Z,90922.00
2019-01-28T22:15:03.361Z,90919.47
2019-01-28T22:17:34.812Z,90917.27
2019-01-28T22:20:07.388Z,90913.98
2019-01-28T22:22:38.711Z,90914.82
2019-01-28T22:25:11.785Z,90923.41
2019-01-28T22:27:43.297Z,90922.03
2019-01-28T22:30:17.514Z,90918.76
2019-01-28T22:32:49.256Z,90918.91
2019-01-28T22:35:20.732Z,90916.71
2019-01-28T22:37:52.224Z,90915.69
2019-01-28T22:40:23.646Z,90924.69
2019-01-28T22:42:55.213Z,90915.77
2019-01-28T22:45:29.839Z,90907.06
2019-01-28T22:48:01.804Z,90906.52
2019-01-28T22:50:33.283Z,90899.98
2019-01-28T22:53:07.877Z,90901.83
2019-01-28T22:55:41.886Z,90909.13
2019-01-28T22:58:13.345Z,90921.64
2019-01-28T23:01:09.315Z,90918.38
2019-01-28T23:03:40.835Z,90916.27
2019-01-28T23:06:12.832Z,90916.64
2019-01-28T23:08:44.355Z,90915.02
2019-01-28T23:11:15.767Z,90915.22
2019-01-28T23:13:47.135Z,90910.03
2019-01-28T23:16:18.514Z,90932.41
2019-01-28T23:18:50.073Z,90926.41
2019-01-28T23:21:21.556Z,90939.17
2019-01-28T23:23:52.848Z,90926.99
2019-01-28T23:26:24.228Z,90919.09
2019-01-28T23:28:55.470Z,90913.70
2019-01-28T23:31:26.826Z,90911.58
2019-01-28T23:33:59.399Z,90920.00
2019-01-28T23:36:30.955Z,90913.12
2019-01-28T23:39:02.405Z,90914.48
2019-01-28T23:41:33.703Z,90905.17
2019-01-28T23:44:05.095Z,90909.58
2019-01-28T23:46:36.261Z,90911.31
2019-01-28T23:49:09.209Z,90909.58
2019-01-28T23:51:41.064Z,90908.41
2019-01-28T23:54:12.330Z,90908.41
2019-01-28T23:56:43.918Z,90904.82
2019-01-28T23:59:15.307Z,90906.80
